Time;durP1;ratioP1;P1;durP2;ratioP2;P2;SDS_P1;SDS_P2;PMS_P1;PMS_P2;Temp;Humidity;BMP_temperature;BMP_pressure;BME280_temperature;BME280_humidity;BME280_pressure;Samples;Min_cycle;Max_cycle;Signal;HPM_P1;HPM_P2
2022/06/15 00:00:17;;;;;;;4.20;3.10;;;;;;;13.41;63.45;101271.72;4992134;28;20597;-80
2022/06/15 00:02:44;;;;;;;4.70;3.10;;;;;;;13.34;63.93;101273.06;4992242;28;20233;-81
2022/06/15 00:05:12;;;;;;;5.40;3.10;;;;;;;13.30;64.18;101264.38;4992099;28;20215;-80
2022/06/15 00:07:38;;;;;;;3.53;3.13;;;;;;;13.27;64.54;101277.94;4992090;28;20211;-79
2022/06/15 00:10:06;;;;;;;3.10;2.90;;;;;;;13.24;64.67;101270.13;4992706;28;20323;-80
2022/06/15 00:12:33;;;;;;;5.33;3.30;;;;;;;13.19;64.34;101267.75;4989303;28;20239;-79
2022/06/15 00:14:59;;;;;;;2.70;2.50;;;;;;;13.15;64.36;101262.69;4992016;28;20585;-79
2022/06/15 00:17:26;;;;;;;4.13;3.40;;;;;;;13.10;64.59;101262.09;4991721;28;20203;-79
2022/06/15 00:19:52;;;;;;;3.97;2.90;;;;;;;13.06;64.36;101260.59;4985598;28;20206;-80
2022/06/15 00:22:20;;;;;;;4.83;3.13;;;;;;;13.03;64.50;101266.13;4989527;28;20336;-80
2022/06/15 00:24:47;;;;;;;6.23;3.60;;;;;;;13.00;65.17;101260.97;4990050;28;20563;-79
2022/06/15 00:27:14;;;;;;;4.37;3.37;;;;;;;12.98;64.92;101261.06;4993791;28;20214;-79
2022/06/15 00:29:40;;;;;;;5.30;3.53;;;;;;;12.97;65.16;101255.81;4995736;28;20270;-79
2022/06/15 00:32:08;;;;;;;3.83;3.03;;;;;;;12.93;65.18;101251.59;4995455;28;20726;-79
2022/06/15 00:34:35;;;;;;;5.03;3.00;;;;;;;12.92;65.41;101263.25;4994775;28;20235;-79
2022/06/15 00:37:01;;;;;;;5.63;3.20;;;;;;;12.86;64.90;101265.38;4994873;28;20233;-80
2022/06/15 00:39:30;;;;;;;3.03;2.70;;;;;;;12.78;64.22;101258.78;4995137;28;20209;-78
2022/06/15 00:41:57;;;;;;;4.60;3.50;;;;;;;12.65;64.72;101266.72;4980879;28;20759;-79
2022/06/15 00:44:36;;;;;;;3.33;3.03;;;;;;;12.60;65.14;101257.25;4991258;28;20203;-81
2022/06/15 00:47:08;;;;;;;4.27;3.60;;;;;;;12.54;65.50;101257.66;4992923;28;20631;-80
2022/06/15 00:49:39;;;;;;;4.83;4.20;;;;;;;12.51;66.12;101246.22;4995328;28;20717;-80
2022/06/15 00:52:10;;;;;;;4.30;3.43;;;;;;;12.49;65.80;101255.28;4995579;28;20575;-81
2022/06/15 00:54:39;;;;;;;5.27;3.43;;;;;;;12.47;66.13;101242.00;4990411;28;20214;-80
2022/06/15 00:57:06;;;;;;;3.53;3.23;;;;;;;12.41;66.03;101237.03;4995199;28;20220;-81
2022/06/15 00:59:36;;;;;;;3.53;3.23;;;;;;;12.38;65.78;101241.69;4994863;28;20295;-79
2022/06/15 01:02:03;;;;;;;3.60;3.30;;;;;;;12.30;65.47;101242.19;4994904;28;20233;-80
2022/06/15 01:04:39;;;;;;;3.70;3.40;;;;;;;12.24;65.40;101237.19;4993816;28;20195;-79
2022/06/15 01:07:13;;;;;;;3.93;3.13;;;;;;;12.18;65.66;101223.38;4995038;28;20191;-79
2022/06/15 01:09:55;;;;;;;4.67;3.47;;;;;;;12.13;65.96;101231.66;4992360;28;20311;-79
2022/06/15 01:12:29;;;;;;;3.50;3.20;;;;;;;12.09;66.22;101222.13;4994342;28;20616;-78
2022/06/15 01:15:08;;;;;;;4.77;3.80;;;;;;;12.07;66.53;101234.69;4989620;28;20224;-80
2022/06/15 01:17:49;;;;;;;4.33;3.97;;;;;;;12.05;66.91;101241.94;4994486;28;20230;-79
2022/06/15 01:20:33;;;;;;;3.80;3.50;;;;;;;12.01;66.67;101246.59;4994382;28;20204;-80
2022/06/15 01:23:32;;;;;;;3.47;2.90;;;;;;;11.95;66.82;101233.63;4991909;28;20227;-80
2022/06/15 01:26:14;;;;;;;4.10;2.97;;;;;;;11.89;67.11;101238.47;4994041;28;20236;-79
2022/06/15 01:28:46;;;;;;;3.97;3.60;;;;;;;11.85;67.15;101242.25;4993433;28;20217;-79
2022/06/15 01:31:25;;;;;;;3.50;3.20;;;;;;;11.81;67.36;101233.59;4982237;28;20226;-80
2022/06/15 01:34:03;;;;;;;3.97;3.67;;;;;;;11.79;67.47;101244.34;4993420;28;20220;-79
2022/06/15 01:36:39;;;;;;;5.63;4.57;;;;;;;11.78;67.71;101244.44;4987717;28;20205;-79
2022/06/15 01:39:11;;;;;;;4.70;3.87;;;;;;;11.78;68.07;101241.78;4992340;28;20204;-79
2022/06/15 01:41:46;;;;;;;5.53;4.00;;;;;;;11.78;68.11;101245.31;4993306;28;20234;-79
2022/06/15 01:44:15;;;;;;;5.10;3.87;;;;;;;11.76;68.19;101241.88;4987075;28;20620;-79
2022/06/15 01:46:46;;;;;;;4.23;3.83;;;;;;;11.72;68.12;101242.97;4992862;28;20296;-80
2022/06/15 01:49:18;;;;;;;4.30;3.83;;;;;;;11.68;68.11;101241.41;4993487;28;20209;-80
2022/06/15 01:51:45;;;;;;;5.73;3.87;;;;;;;11.66;68.30;101245.13;4988999;28;20238;-81
2022/06/15 01:54:17;;;;;;;4.87;3.77;;;;;;;11.62;68.21;101247.13;4993430;28;20601;-78
2022/06/15 01:56:47;;;;;;;5.07;4.53;;;;;;;11.56;68.20;101249.28;4988854;28;20212;-79
2022/06/15 01:59:18;;;;;;;5.27;4.27;;;;;;;11.48;68.59;101255.91;4993752;28;20224;-79
2022/06/15 02:01:53;;;;;;;5.73;4.57;;;;;;;11.41;69.26;101254.56;4993478;28;20228;-79
2022/06/15 02:04:27;;;;;;;4.50;3.87;;;;;;;11.37;69.81;101247.66;4993696;28;20228;-80
2022/06/15 02:07:04;;;;;;;4.37;3.97;;;;;;;11.36;70.31;101242.41;4993602;28;20220;-80
2022/06/15 02:09:37;;;;;;;6.97;4.50;;;;;;;11.35;70.41;101238.88;4984096;28;20231;-79
2022/06/15 02:12:06;;;;;;;4.33;3.93;;;;;;;11.35;70.76;101230.03;4993388;28;20235;-79
2022/06/15 02:14:38;;;;;;;5.20;4.30;;;;;;;11.33;71.12;101230.13;4993544;28;20224;-79
2022/06/15 02:17:11;;;;;;;6.17;3.97;;;;;;;11.35;70.86;101243.38;4993654;28;20207;-80
2022/06/15 02:19:43;;;;;;;4.60;3.83;;;;;;;11.32;70.79;101240.88;4993130;28;20201;-79
2022/06/15 02:22:14;;;;;;;4.73;4.23;;;;;;;11.30;70.82;101235.63;4992975;28;20323;-79
2022/06/15 02:24:43;;;;;;;5.40;4.30;;;;;;;11.26;70.85;101228.75;4993033;28;20210;-80
2022/06/15 02:27:12;;;;;;;4.40;4.00;;;;;;;11.23;70.60;101220.06;4988967;28;20213;-79
2022/06/15 02:29:42;;;;;;;8.30;4.67;;;;;;;11.19;71.00;101221.19;4992978;28;20218;-79
2022/06/15 02:32:11;;;;;;;4.93;3.90;;;;;;;11.13;70.77;101207.25;4992991;28;20233;-79
2022/06/15 02:34:38;;;;;;;5.37;3.90;;;;;;;11.09;70.31;101211.06;4989353;28;20279;-79
2022/06/15 02:37:06;;;;;;;4.83;3.70;;;;;;;11.03;70.64;101208.72;4993046;28;20222;-80
2022/06/15 02:39:33;;;;;;;5.23;3.97;;;;;;;10.98;69.81;101209.94;4993228;28;20654;-80
2022/06/15 02:42:02;;;;;;;3.93;3.57;;;;;;;10.91;70.26;101214.75;4992883;28;20231;-79
2022/06/15 02:44:31;;;;;;;6.07;4.03;;;;;;;10.86;69.95;101213.28;4992824;28;20205;-79
2022/06/15 02:46:59;;;;;;;4.27;3.87;;;;;;;10.84;70.54;101220.50;4992133;28;20291;-80
2022/06/15 02:49:27;;;;;;;4.97;4.20;;;;;;;10.82;70.77;101211.72;4992372;28;20211;-78
2022/06/15 02:51:57;;;;;;;6.03;3.80;;;;;;;10.80;70.99;101209.16;4992410;28;20231;-80
2022/06/15 02:54:28;;;;;;;6.77;4.17;;;;;;;10.77;71.02;101209.31;4988177;28;20230;-79
2022/06/15 02:56:55;;;;;;;4.50;4.10;;;;;;;10.73;70.98;101208.66;4991464;28;20204;-80
2022/06/15 02:59:21;;;;;;;7.27;4.70;;;;;;;10.72;70.89;101206.06;4991602;28;20213;-79
2022/06/15 03:01:48;;;;;;;4.97;4.47;;;;;;;10.71;71.09;101207.00;4991449;28;20737;-78
2022/06/15 03:04:14;;;;;;;5.57;4.50;;;;;;;10.69;71.41;101206.22;4992121;28;20204;-78
2022/06/15 03:06:42;;;;;;;5.70;4.57;;;;;;;10.66;71.55;101204.59;4990844;28;20234;-80
2022/06/15 03:09:09;;;;;;;5.50;4.90;;;;;;;10.65;71.63;101199.34;4992269;28;20200;-79
2022/06/15 03:11:39;;;;;;;6.47;4.60;;;;;;;10.62;71.99;101197.69;4992241;28;20223;-80
2022/06/15 03:14:05;;;;;;;6.77;4.97;;;;;;;10.64;72.09;101208.28;4992226;28;20383;-79
2022/06/15 03:16:32;;;;;;;6.07;4.20;;;;;;;10.64;72.82;101206.47;4987556;28;20221;-80
2022/06/15 03:18:58;;;;;;;6.07;5.03;;;;;;;10.64;73.03;101210.94;4992383;28;20560;-79
2022/06/15 03:21:25;;;;;;;5.97;5.17;;;;;;;10.61;72.82;101209.28;4990949;28;20327;-78
2022/06/15 03:23:53;;;;;;;5.67;4.80;;;;;;;10.59;72.89;101205.00;4991382;28;20299;-78
2022/06/15 03:26:19;;;;;;;6.37;4.93;;;;;;;10.55;73.34;101208.78;4988656;28;20210;-80
2022/06/15 03:28:46;;;;;;;5.17;4.67;;;;;;;10.49;73.61;101201.97;4991748;28;20803;-80
2022/06/15 03:31:12;;;;;;;6.53;5.30;;;;;;;10.47;74.06;101203.00;4991560;28;20224;-78
2022/06/15 03:33:39;;;;;;;5.23;4.67;;;;;;;10.46;73.77;101206.59;4990535;28;20215;-78
2022/06/15 03:36:06;;;;;;;5.73;4.87;;;;;;;10.46;74.06;101204.81;4988888;28;20215;-80
2022/06/15 03:38:33;;;;;;;6.20;4.77;;;;;;;10.43;73.64;101197.84;4991745;28;20246;-79
2022/06/15 03:41:01;;;;;;;7.40;4.27;;;;;;;10.41;73.87;101196.19;4991461;28;20199;-79
2022/06/15 03:43:28;;;;;;;5.87;4.77;;;;;;;10.39;73.99;101206.94;4990490;28;20211;-79
2022/06/15 03:45:55;;;;;;;7.83;5.43;;;;;;;10.37;74.50;101205.31;4991270;28;20210;-77
2022/06/15 03:48:22;;;;;;;6.50;5.47;;;;;;;10.36;74.31;101204.47;4982430;28;20299;-79
2022/06/15 03:50:49;;;;;;;9.00;5.60;;;;;;;10.34;75.11;101201.00;4990839;28;20249;-78
2022/06/15 03:53:15;;;;;;;6.10;5.50;;;;;;;10.34;75.00;101201.00;4990923;28;20211;-79
2022/06/15 03:55:43;;;;;;;7.43;6.03;;;;;;;10.35;75.96;101199.22;4989697;28;20238;-79
2022/06/15 03:58:13;;;;;;;7.10;5.00;;;;;;;10.38;75.79;101201.72;4991318;28;20236;-78
2022/06/15 04:00:40;;;;;;;6.57;4.93;;;;;;;10.39;76.08;101198.94;4990821;28;20231;-79
2022/06/15 04:03:06;;;;;;;7.43;5.07;;;;;;;10.40;76.43;101192.66;4991948;28;20237;-79
2022/06/15 04:05:35;;;;;;;6.30;5.77;;;;;;;10.43;76.42;101195.19;4995599;28;20223;-79
2022/06/15 04:10:47;;;;;;;7.00;5.80;;;;;;;10.50;76.80;101201.03;4992061;28;20206;-79
2022/06/15 04:13:15;;;;;;;7.10;4.97;;;;;;;10.54;77.01;101205.25;4994369;28;20222;-78
2022/06/15 04:15:42;;;;;;;6.00;5.30;;;;;;;10.56;77.54;101199.84;4991390;28;20235;-78
2022/06/15 04:18:09;;;;;;;7.73;5.77;;;;;;;10.56;77.23;101206.03;4994766;28;20211;-78
2022/06/15 04:20:36;;;;;;;11.13;5.87;;;;;;;10.57;77.38;101201.59;4993200;28;20210;-79
2022/06/15 04:23:05;;;;;;;6.67;5.23;;;;;;;10.58;77.59;101198.81;4993541;28;20274;-79
2022/06/15 04:25:34;;;;;;;7.40;5.97;;;;;;;10.60;77.57;101198.72;4995716;28;20218;-79
2022/06/15 04:28:00;;;;;;;7.50;5.90;;;;;;;10.61;77.76;101189.78;4994838;28;20215;-79
2022/06/15 04:30:28;;;;;;;5.90;5.30;;;;;;;10.64;78.04;101195.81;4996049;28;20219;-81
2022/06/15 04:32:55;;;;;;;7.40;5.53;;;;;;;10.67;78.50;101193.00;4996875;28;20227;-81
2022/06/15 04:35:22;;;;;;;8.20;5.80;;;;;;;10.71;78.26;101201.69;4997532;28;20224;-80
2022/06/15 04:37:48;;;;;;;6.60;5.23;;;;;;;10.74;78.48;101204.19;4993108;28;20211;-80
2022/06/15 04:40:15;;;;;;;7.03;5.43;;;;;;;10.75;78.71;101204.06;4997491;28;20586;-80
2022/06/15 04:42:43;;;;;;;8.00;5.60;;;;;;;10.78;78.66;101209.22;4997467;28;20223;-80
2022/06/15 04:45:12;;;;;;;9.37;5.87;;;;;;;10.83;78.80;101194.78;4997591;28;20207;-82
2022/06/15 04:47:40;;;;;;;7.43;6.07;;;;;;;10.87;79.30;101199.88;4998076;28;20207;-81
2022/06/15 04:50:08;;;;;;;10.53;5.70;;;;;;;10.91;78.87;101196.09;4997966;28;20631;-81
2022/06/15 04:52:35;;;;;;;7.87;5.80;;;;;;;10.95;79.23;101197.63;4999073;28;20232;-80
2022/06/15 04:55:02;;;;;;;10.77;6.57;;;;;;;10.98;79.27;101200.13;4999338;28;20227;-82
2022/06/15 04:57:29;;;;;;;7.17;6.47;;;;;;;11.02;79.36;101201.69;4999877;28;20210;-81
2022/06/15 04:59:55;;;;;;;6.93;5.83;;;;;;;11.05;79.16;101197.97;4999744;28;20211;-81
2022/06/15 05:02:22;;;;;;;10.03;6.37;;;;;;;11.10;79.50;101204.78;5000734;28;20242;-80
2022/06/15 05:04:50;;;;;;;6.60;5.90;;;;;;;11.13;79.60;101201.91;5000543;28;20208;-81
2022/06/15 05:07:17;;;;;;;8.50;6.10;;;;;;;11.18;79.19;101203.47;4999757;28;20215;-79
2022/06/15 05:09:47;;;;;;;9.73;6.63;;;;;;;11.21;79.15;101197.97;4999767;28;20659;-81
2022/06/15 05:12:13;;;;;;;9.20;5.67;;;;;;;11.24;79.26;101203.13;4999347;28;20231;-81
2022/06/15 05:14:40;;;;;;;9.37;6.27;;;;;;;11.29;79.26;101206.38;4997146;28;20234;-81
2022/06/15 05:17:06;;;;;;;8.93;6.30;;;;;;;11.34;79.32;101201.63;4998124;28;20220;-80
2022/06/15 05:19:33;;;;;;;9.23;6.93;;;;;;;11.41;79.61;101197.69;4990828;28;20578;-79
2022/06/15 05:22:01;;;;;;;12.43;6.83;;;;;;;11.50;79.80;101205.13;4997469;28;20272;-80
2022/06/15 05:24:27;;;;;;;10.67;5.97;;;;;;;11.60;79.83;101197.47;4997392;28;20207;-79
2022/06/15 05:26:54;;;;;;;8.60;5.83;;;;;;;11.71;80.14;101200.34;4997346;28;20209;-79
2022/06/15 05:29:20;;;;;;;10.60;5.40;;;;;;;11.80;79.98;101197.19;4998289;28;20206;-79
2022/06/15 05:31:47;;;;;;;5.90;5.30;;;;;;;11.89;79.65;101196.63;4997918;28;20228;-79
2022/06/15 05:34:13;;;;;;;8.07;4.77;;;;;;;11.97;79.06;101196.16;4998148;28;20215;-80
2022/06/15 05:36:40;;;;;;;8.47;5.50;;;;;;;12.07;79.27;101189.31;4997145;28;20213;-79
2022/06/15 05:39:08;;;;;;;8.07;5.17;;;;;;;12.21;79.27;101201.81;4995924;28;20197;-80
2022/06/15 05:41:34;;;;;;;7.00;5.30;;;;;;;12.34;79.38;101192.09;4994711;28;20233;-78
2022/06/15 05:44:01;;;;;;;6.53;4.13;;;;;;;12.53;79.04;101192.69;4994781;28;20215;-79
2022/06/15 05:46:30;;;;;;;6.70;5.10;;;;;;;12.67;78.75;101200.69;4994905;28;20208;-80
2022/06/15 05:48:57;;;;;;;10.13;5.73;;;;;;;12.84;78.36;101207.63;4995873;28;20298;-81
2022/06/15 05:51:24;;;;;;;8.30;5.03;;;;;;;12.98;77.95;101194.22;4994671;28;20250;-81
2022/06/15 05:53:50;;;;;;;6.83;5.17;;;;;;;13.16;77.36;101201.06;4995347;28;20290;-80
2022/06/15 05:56:19;;;;;;;9.00;5.27;;;;;;;13.35;76.77;101199.88;4994746;28;20238;-81
2022/06/15 05:58:46;;;;;;;9.03;4.97;;;;;;;13.54;76.25;101200.38;4986160;28;20212;-80
2022/06/15 06:01:21;;;;;;;6.17;4.57;;;;;;;13.70;75.40;101198.38;4993755;28;20308;-80
2022/06/15 06:03:47;;;;;;;8.70;4.70;;;;;;;13.89;74.66;101192.63;4990376;28;20195;-78
2022/06/15 06:06:14;;;;;;;6.80;4.57;;;;;;;14.07;74.59;101196.72;4994898;28;20214;-81
2022/06/15 06:08:41;;;;;;;7.53;4.50;;;;;;;14.24;73.28;101193.72;4988142;28;20204;-81
2022/06/15 06:11:07;;;;;;;7.53;4.03;;;;;;;14.43;72.79;101198.69;4993303;28;20213;-81
2022/06/15 06:13:35;;;;;;;7.50;4.73;;;;;;;14.61;71.52;101191.16;4990987;28;20804;-79
2022/06/15 06:16:02;;;;;;;8.83;4.10;;;;;;;14.78;71.59;101198.84;4992535;28;20231;-81
2022/06/15 06:18:29;;;;;;;6.20;3.77;;;;;;;14.98;70.40;101200.06;4990372;28;20199;-79
2022/06/15 06:20:55;;;;;;;6.77;3.93;;;;;;;15.16;69.17;101196.03;4991657;28;20410;-79
2022/06/15 06:23:22;;;;;;;8.23;3.50;;;;;;;15.33;67.64;101193.94;4992018;28;20210;-79
2022/06/15 06:25:56;;;;;;;3.93;3.33;;;;;;;15.46;66.76;101200.09;4994676;28;20204;-80
2022/06/15 06:28:27;;;;;;;5.67;3.30;;;;;;;15.62;66.34;101192.63;4993470;28;20203;-81
2022/06/15 06:30:57;;;;;;;6.23;3.73;;;;;;;15.80;65.30;101187.66;4990421;28;20219;-79
2022/06/15 06:33:24;;;;;;;5.97;3.63;;;;;;;15.97;64.54;101185.41;4984125;28;20809;-80
2022/06/15 06:35:51;;;;;;;4.13;2.93;;;;;;;16.16;64.06;101192.03;4992766;28;20229;-80
2022/06/15 06:38:18;;;;;;;3.97;3.10;;;;;;;16.38;63.07;101192.06;4993980;28;20221;-80
2022/06/15 06:40:44;;;;;;;6.10;3.63;;;;;;;16.53;62.25;101192.69;4991349;28;20299;-80
2022/06/15 06:43:11;;;;;;;7.27;3.47;;;;;;;16.70;62.01;101192.22;4993571;28;20228;-80
2022/06/15 06:45:37;;;;;;;6.43;3.37;;;;;;;16.84;61.12;101196.50;4994150;28;20820;-80
2022/06/15 06:48:06;;;;;;;6.33;3.10;;;;;;;16.99;60.90;101208.72;4993019;28;20576;-79
2022/06/15 06:50:34;;;;;;;8.83;3.50;;;;;;;17.09;59.86;101192.66;4993993;28;20608;-80
2022/06/15 06:53:01;;;;;;;5.03;3.17;;;;;;;17.22;59.86;101188.81;4993451;28;20242;-80
2022/06/15 06:55:28;;;;;;;6.23;3.40;;;;;;;17.38;59.28;101196.47;4992979;28;20237;-80
2022/06/15 06:57:55;;;;;;;8.10;3.50;;;;;;;17.53;59.04;101192.53;4992024;28;20277;-81
2022/06/15 07:00:21;;;;;;;6.83;3.07;;;;;;;17.69;58.36;101192.97;4990362;28;20215;-80
2022/06/15 07:02:48;;;;;;;4.47;2.93;;;;;;;17.84;58.38;101196.22;4992552;28;20236;-79
2022/06/15 07:05:16;;;;;;;4.80;3.00;;;;;;;17.97;57.38;101193.31;4991559;28;20209;-80
2022/06/15 07:07:42;;;;;;;7.10;2.97;;;;;;;18.09;57.61;101192.28;4991217;28;20690;-79
2022/06/15 07:10:10;;;;;;;5.10;2.77;;;;;;;18.24;57.13;101198.19;4986788;28;20219;-81
2022/06/15 07:12:38;;;;;;;5.37;3.27;;;;;;;18.36;56.88;101183.63;4993022;28;20715;-79
2022/06/15 07:15:06;;;;;;;5.77;3.10;;;;;;;18.53;56.49;101190.22;4991443;28;20237;-79
2022/06/15 07:17:32;;;;;;;5.00;2.83;;;;;;;18.66;55.94;101194.44;4992911;28;20586;-81
2022/06/15 07:19:59;;;;;;;5.03;2.80;;;;;;;18.79;55.90;101190.66;4993115;28;20209;-79
2022/06/15 07:22:27;;;;;;;7.10;3.50;;;;;;;18.96;56.19;101190.84;4992876;28;20766;-79
2022/06/15 07:24:53;;;;;;;8.43;3.63;;;;;;;19.10;55.26;101197.69;4992772;28;20301;-79
2022/06/15 07:27:20;;;;;;;6.50;3.13;;;;;;;19.22;55.14;101193.03;4992097;28;20221;-79
2022/06/15 07:29:47;;;;;;;6.67;3.57;;;;;;;19.35;54.84;101191.75;4993057;28;20215;-80
2022/06/15 07:32:15;;;;;;;6.60;3.93;;;;;;;19.49;54.41;101190.50;4991737;28;20916;-80
2022/06/15 07:34:42;;;;;;;8.70;3.17;;;;;;;19.64;53.59;101183.72;4981917;28;20214;-80
2022/06/15 07:37:10;;;;;;;5.50;3.23;;;;;;;19.75;53.65;101180.00;4957781;28;1045676;-80
2022/06/15 07:39:39;;;;;;;6.17;3.80;;;;;;;19.89;53.04;101184.97;4995539;28;20220;-80
2022/06/15 07:42:07;;;;;;;9.33;3.73;;;;;;;19.97;53.36;101178.84;4994843;28;20230;-80
2022/06/15 07:44:35;;;;;;;8.00;3.37;;;;;;;20.11;52.87;101181.09;4997358;28;20210;-80
2022/06/15 07:49:57;;;;;;;7.70;3.13;;;;;;;20.40;52.11;101178.34;4996723;28;20217;-80
2022/06/15 07:52:25;;;;;;;5.87;3.70;;;;;;;20.55;51.60;101176.00;4997055;28;20276;-79
2022/06/15 07:54:53;;;;;;;4.77;3.60;;;;;;;20.68;51.71;101174.66;4992457;28;20219;-80
2022/06/15 07:57:20;;;;;;;5.83;3.57;;;;;;;20.82;50.70;101162.47;4993878;28;20207;-80
2022/06/15 07:59:46;;;;;;;8.95;3.58;;;;;;;20.98;50.46;101168.06;4995918;28;20215;-80
2022/06/15 08:02:14;;;;;;;6.85;3.38;;;;;;;21.11;50.16;101165.88;4994757;28;20238;-80
2022/06/15 08:04:40;;;;;;;5.15;3.40;;;;;;;21.22;49.72;101163.97;4997632;28;20742;-80
2022/06/15 08:07:09;;;;;;;7.00;3.80;;;;;;;21.32;49.76;101162.88;4995448;28;20210;-80
2022/06/15 08:09:36;;;;;;;8.27;3.50;;;;;;;21.40;49.08;101160.25;4996307;28;20204;-80
2022/06/15 08:12:16;;;;;;;6.28;3.40;;;;;;;21.51;48.97;101167.28;4996931;28;20224;-80
2022/06/15 08:14:46;;;;;;;10.73;4.30;;;;;;;21.60;48.58;101152.81;4994563;28;20204;-80
2022/06/15 08:17:18;;;;;;;10.50;4.80;;;;;;;21.71;48.60;101163.41;4997003;28;20634;-80
2022/06/15 08:19:49;;;;;;;8.48;3.60;;;;;;;21.82;48.67;101162.34;4995431;28;20226;-80
2022/06/15 08:22:17;;;;;;;7.85;4.47;;;;;;;21.92;47.87;101157.66;4996235;28;20235;-80
2022/06/15 08:24:45;;;;;;;7.72;4.07;;;;;;;22.00;47.54;101159.63;4996567;28;20222;-81
2022/06/15 08:27:14;;;;;;;7.93;4.43;;;;;;;22.08;47.59;101154.22;4989927;28;20209;-80
2022/06/15 08:29:42;;;;;;;7.28;4.10;;;;;;;22.17;47.15;101154.16;4993466;28;20214;-81
2022/06/15 08:32:09;;;;;;;5.93;3.72;;;;;;;22.29;47.04;101151.16;4996491;28;20611;-80
2022/06/15 08:34:37;;;;;;;4.82;3.25;;;;;;;22.40;47.06;101143.56;4988589;28;20209;-80
2022/06/15 08:37:06;;;;;;;9.95;3.80;;;;;;;22.55;46.59;101151.97;4990645;28;20314;-80
2022/06/15 08:39:32;;;;;;;6.53;4.15;;;;;;;22.67;46.47;101142.53;4995706;28;20734;-80
2022/06/15 08:42:05;;;;;;;6.95;3.85;;;;;;;22.82;46.25;101151.78;4996519;28;20230;-80
2022/06/15 08:44:42;;;;;;;4.15;3.13;;;;;;;22.96;45.57;101149.44;4995077;28;20203;-81
2022/06/15 08:47:14;;;;;;;6.00;3.55;;;;;;;23.10;45.59;101148.81;4995565;28;20211;-80
2022/06/15 08:49:52;;;;;;;5.65;3.30;;;;;;;23.26;45.48;101150.72;4995771;28;20204;-80
2022/06/15 08:52:23;;;;;;;4.82;3.13;;;;;;;23.39;44.71;101141.03;4993089;28;20606;-81
2022/06/15 08:54:57;;;;;;;7.10;3.08;;;;;;;23.50;44.27;101137.13;4996435;28;20203;-80
2022/06/15 08:57:33;;;;;;;7.82;3.00;;;;;;;23.62;43.43;101143.13;4996097;28;20612;-80
2022/06/15 09:00:09;;;;;;;4.35;2.83;;;;;;;23.69;42.89;101135.97;4998761;28;20211;-81
2022/06/15 09:02:44;;;;;;;3.97;2.55;;;;;;;23.77;43.14;101142.28;4998482;28;21223;-81
2022/06/15 09:05:17;;;;;;;5.63;2.65;;;;;;;23.88;43.38;101136.47;4997562;28;20667;-80
2022/06/15 09:07:59;;;;;;;4.72;2.42;;;;;;;23.95;42.76;101130.34;4994761;28;20209;-80
2022/06/15 09:10:40;;;;;;;4.38;2.50;;;;;;;23.99;42.05;101129.00;4996779;28;20204;-80
2022/06/15 09:13:22;;;;;;;4.03;2.13;;;;;;;24.00;42.56;101128.81;4998732;28;20227;-79
2022/06/15 09:15:59;;;;;;;6.20;2.20;;;;;;;24.02;41.81;101129.47;4992939;28;20370;-80
2022/06/15 09:18:32;;;;;;;4.68;2.20;;;;;;;24.07;41.69;101132.53;4997529;28;20578;-79
2022/06/15 09:21:04;;;;;;;25.52;3.58;;;;;;;24.20;41.60;101135.56;4995917;28;20205;-80
2022/06/15 09:23:36;;;;;;;4.57;2.05;;;;;;;24.25;40.68;101132.34;4993222;28;20204;-80
2022/06/15 09:26:06;;;;;;;3.75;2.00;;;;;;;24.28;39.94;101142.06;4989204;28;20202;-80
2022/06/15 09:28:37;;;;;;;2.70;1.75;;;;;;;24.28;40.14;101139.34;4995339;28;20568;-80
2022/06/15 09:31:10;;;;;;;3.45;1.60;;;;;;;24.31;40.14;101133.53;4995248;28;20296;-80
2022/06/15 09:33:43;;;;;;;5.60;2.20;;;;;;;24.37;40.20;101135.53;4991509;28;20199;-80
2022/06/15 09:36:13;;;;;;;3.53;1.77;;;;;;;24.46;40.26;101129.06;4993535;28;20757;-80
2022/06/15 09:38:41;;;;;;;5.32;1.77;;;;;;;24.53;40.24;101138.25;4996794;28;20226;-80
2022/06/15 09:41:15;;;;;;;4.05;1.65;;;;;;;24.61;40.02;101130.03;4990983;28;20207;-80
2022/06/15 09:43:51;;;;;;;6.13;1.58;;;;;;;24.64;38.74;101124.22;4995886;28;20203;-80
2022/06/15 09:46:26;;;;;;;5.22;1.70;;;;;;;24.66;38.80;101130.34;4995126;28;20213;-80
2022/06/15 09:49:04;;;;;;;4.53;1.98;;;;;;;24.72;38.94;101117.91;4995357;28;20207;-79
2022/06/15 09:51:42;;;;;;;3.15;1.52;;;;;;;24.78;38.81;101117.16;4996032;28;20250;-80
2022/06/15 09:54:21;;;;;;;2.75;1.52;;;;;;;24.83;38.66;101115.63;4993621;28;20209;-80
2022/06/15 09:56:49;;;;;;;1.98;1.35;;;;;;;24.86;38.19;101119.88;4987859;28;20215;-80
2022/06/15 09:59:19;;;;;;;4.15;1.60;;;;;;;24.95;38.06;101107.91;4993934;28;20211;-81
2022/06/15 10:01:48;;;;;;;3.05;1.50;;;;;;;25.05;37.19;101116.72;4995189;28;20234;-80
2022/06/15 10:04:18;;;;;;;2.58;1.38;;;;;;;25.14;37.15;101122.97;4990449;28;20211;-80
2022/06/15 10:06:48;;;;;;;2.80;1.33;;;;;;;25.24;36.85;101118.97;4995273;28;20215;-79
2022/06/15 10:09:19;;;;;;;4.95;1.63;;;;;;;25.35;36.55;101122.31;4995299;28;20203;-80
2022/06/15 10:11:49;;;;;;;3.08;1.35;;;;;;;25.42;36.09;101115.09;4996154;28;20234;-80
2022/06/15 10:14:24;;;;;;;3.00;1.58;;;;;;;25.45;36.05;101109.25;4995365;28;20696;-80
2022/06/15 10:16:57;;;;;;;4.53;1.52;;;;;;;25.53;36.39;101117.38;4995255;28;20215;-80
2022/06/15 10:19:25;;;;;;;2.65;1.60;;;;;;;25.64;35.96;101116.13;4989266;28;20209;-80
2022/06/15 10:21:55;;;;;;;3.15;1.52;;;;;;;25.72;35.59;101105.16;4996588;28;20789;-80
2022/06/15 10:24:26;;;;;;;4.68;1.50;;;;;;;25.82;35.63;101112.03;4992634;28;20565;-80
2022/06/15 10:27:14;;;;;;;3.90;1.85;;;;;;;25.93;34.76;101111.59;4985311;28;20200;-79
2022/06/15 10:29:41;;;;;;;4.07;1.67;;;;;;;25.97;35.40;101103.91;4990181;28;20208;-80
2022/06/15 10:32:20;;;;;;;3.20;1.50;;;;;;;26.06;36.23;101100.03;4994683;28;20258;-80
2022/06/15 10:34:55;;;;;;;3.83;1.50;;;;;;;26.13;35.83;101102.88;4990027;28;20202;-80
2022/06/15 10:37:25;;;;;;;3.55;1.33;;;;;;;26.24;35.96;101102.38;4992172;28;20222;-80
2022/06/15 10:39:54;;;;;;;3.47;1.90;;;;;;;26.38;35.37;101103.44;4995817;28;20254;-80
2022/06/15 10:42:30;;;;;;;3.42;1.33;;;;;;;26.48;35.43;101104.88;4994433;28;20228;-80
2022/06/15 10:44:59;;;;;;;3.83;1.35;;;;;;;26.55;34.91;101100.31;4996016;28;20715;-80
2022/06/15 10:47:32;;;;;;;6.03;1.60;;;;;;;26.60;34.71;101106.06;4990855;28;20651;-80
2022/06/15 10:50:02;;;;;;;2.65;1.55;;;;;;;26.60;34.35;101105.22;4995963;28;20207;-80
2022/06/15 10:52:37;;;;;;;3.58;1.67;;;;;;;26.60;34.10;101105.22;4995131;28;20247;-81
2022/06/15 11:03:40;;;;;;;3.97;1.75;;;;;;;26.91;33.11;101075.75;4991661;28;20210;-80
2022/06/15 11:06:06;;;;;;;2.78;1.70;;;;;;;26.99;33.37;101076.72;4995626;28;20225;-80
2022/06/15 11:08:35;;;;;;;3.92;1.50;;;;;;;27.06;33.48;101074.88;4991667;28;20207;-80
2022/06/15 11:11:12;;;;;;;3.45;1.63;;;;;;;27.11;33.88;101078.72;4995754;28;20275;-79
2022/06/15 11:13:42;;;;;;;4.68;1.80;;;;;;;27.15;33.78;101076.47;4990575;28;20199;-80
2022/06/15 11:19:16;;;;;;;6.97;1.85;;;;;;;27.15;32.87;101068.25;4994872;28;20724;-80
2022/06/15 11:21:47;;;;;;;2.72;1.60;;;;;;;27.16;32.88;101069.94;4991441;28;20220;-80
2022/06/15 11:24:34;;;;;;;4.00;1.73;;;;;;;27.23;32.57;101062.66;4994501;28;20199;-80
2022/06/15 11:27:08;;;;;;;4.38;1.75;;;;;;;27.30;32.55;101061.66;4993086;28;20211;-81
2022/06/15 11:29:42;;;;;;;3.60;1.70;;;;;;;27.41;32.02;101063.00;4995407;28;20235;-80
2022/06/15 11:32:30;;;;;;;8.32;1.88;;;;;;;27.45;31.81;101061.59;4993227;28;20231;-80
2022/06/15 11:35:18;;;;;;;2.17;1.50;;;;;;;27.50;31.82;101058.25;4982329;28;20204;-79
2022/06/15 11:37:49;;;;;;;3.45;1.63;;;;;;;27.54;31.75;101060.41;4993908;28;20239;-80
2022/06/15 11:40:21;;;;;;;2.28;1.60;;;;;;;27.58;31.39;101056.28;4993545;28;20709;-80
2022/06/15 11:42:50;;;;;;;5.68;1.90;;;;;;;27.67;31.65;101054.22;4990186;28;20257;-80
2022/06/15 11:45:20;;;;;;;3.28;1.75;;;;;;;27.80;31.55;101046.09;4992956;28;20215;-80
2022/06/15 11:48:03;;;;;;;4.35;1.83;;;;;;;27.97;31.33;101046.63;4991294;28;20282;-80
2022/06/15 11:50:38;;;;;;;4.90;1.63;;;;;;;28.06;31.18;101036.38;4984671;28;20204;-79
2022/06/15 11:53:16;;;;;;;3.00;1.40;;;;;;;28.08;31.07;101040.63;4989931;28;20219;-80